PARDEE (PAR)

Elevation: 568' · MOKELUMNE R basin · Operator: East Bay Municipal Utility District

Provisional data, subject to change.
Query executed Thursday at 21:55:41   clock

Select a sensor type for a plot of data.
Note: Reservoir Flows are daily averages.

Earlier

Date RES ELE    STORAGE    RES CHG    OUTFLOW    INFLOW    PPT INC   
 FEET   AF   AF   CFS   CFS   INCHES  
07/01/2015 556.51 174145 -1075 965 340 0.00
07/02/2015 556.08 173264 -881 957 231 0.00
07/03/2015 556.34 173793 529 148 -78 0.00
07/04/2015 556.44 174006 213 148 351 0.00
07/05/2015 556.47 174072 66 148 212 0.00
07/06/2015 556.52 174166 94 148 156 0.00
07/07/2015 556.08 173268 -898 685 415 0.00
07/08/2015 555.63 172353 -915 685 117 0.00
07/09/2015 555.15 171374 -979 687 112 0.00
07/10/2015 555.11 171284 -90 138 -154 0.00
07/11/2015 555.06 171186 -98 122 82 0.00
07/12/2015 555.00 171064 -122 134 93 0.00
07/13/2015 554.93 170911 -153 146 98 0.00
07/14/2015 554.85 170763 -148 146 91 0.00
07/15/2015 555.14 171342 579 145 112 0.00
07/16/2015 555.43 171929 587 145 398 0.00
07/17/2015 555.69 172472 543 145 386 0.00
07/18/2015 555.65 172378 -94 145 335 0.00
07/19/2015 555.60 172284 -94 145 107 0.00
07/20/2015 555.62 172317 33 146 102 0.00
07/21/2015 555.62 172317 0 146 175 0.00
07/22/2015 554.86 170775 -1542 875 400 0.00
07/23/2015 554.06 169175 -1600 964 25 0.00
07/24/2015 553.30 167650 -1525 963 8 0.00
07/25/2015 553.33 167710 60 144 -303 0.00
07/26/2015 553.38 167818 108 144 186 0.00
07/27/2015 553.54 168138 320 145 194 0.00
07/28/2015 553.93 168910 772 145 304 0.00
07/29/2015 554.18 169412 502 145 437 0.00
07/30/2015 -- -- -- -- -- --

Later | Latest

Warning! This data is preliminary and subject to revision.

Show PAR Map | Plot PAR Data | 1 Month PAR Data | Real-Time PAR Data | PAR Info